Time,TemperatureF,DewpointF,PressureIn,WindDirection,WindDirectionDegrees,WindSpeedMPH,WindSpeedGustMPH,Humidity,HourlyPrecipIn,Conditions,Clouds,dailyrainin,SoftwareType,DateUTC
2013-05-02 00:01:00,43.0,43.0,-100.00,South,180,0.0,0.0,100,0.00,,,0.00,,2013-05-02 07:01:00,
2013-05-02 00:11:00,43.0,43.0,-100.00,South,180,0.0,0.0,100,0.00,,,0.00,,2013-05-02 07:11:00,
2013-05-02 00:21:00,42.0,42.0,-100.00,South,180,0.0,0.0,100,0.00,,,0.00,,2013-05-02 07:21:00,
2013-05-02 00:31:00,42.0,42.0,-100.00,South,180,0.0,0.0,100,0.00,,,0.00,,2013-05-02 07:31:00,
2013-05-02 00:41:00,42.0,42.0,-100.00,South,180,0.0,0.0,100,0.00,,,0.00,,2013-05-02 07:41:00,
2013-05-02 00:52:00,42.0,42.0,-100.00,South,180,0.0,0.0,100,0.00,,,0.00,,2013-05-02 07:52:00,
2013-05-02 01:02:00,42.0,42.0,-100.00,South,180,0.0,0.0,100,0.00,,,0.00,,2013-05-02 08:02:00,
2013-05-02 01:11:00,42.0,42.0,-100.00,South,180,0.0,0.0,100,0.00,,,0.00,,2013-05-02 08:11:00,
2013-05-02 01:21:00,42.0,42.0,-100.00,South,180,0.0,0.0,100,0.00,,,0.00,,2013-05-02 08:21:00,
2013-05-02 01:32:00,42.0,42.0,-100.00,South,180,0.0,0.0,100,0.00,,,0.00,,2013-05-02 08:32:00,
2013-05-02 01:42:00,42.0,42.0,-100.00,South,180,0.0,0.0,100,0.00,,,0.00,,2013-05-02 08:42:00,
2013-05-02 01:52:00,42.0,42.0,-100.00,South,180,0.0,0.0,100,0.00,,,0.00,,2013-05-02 08:52:00,
2013-05-02 02:01:00,41.0,41.0,-100.00,South,180,0.0,0.0,100,0.00,,,0.00,,2013-05-02 09:01:00,
2013-05-02 02:11:00,41.0,41.0,-100.00,South,180,0.0,0.0,100,0.00,,,0.00,,2013-05-02 09:11:00,
2013-05-02 02:21:00,41.0,41.0,-100.00,South,180,0.0,0.0,100,0.00,,,0.00,,2013-05-02 09:21:00,
2013-05-02 02:32:00,41.0,41.0,-100.00,South,180,0.0,0.0,100,0.00,,,0.00,,2013-05-02 09:32:00,
2013-05-02 02:42:00,41.0,41.0,-100.00,South,180,0.0,0.0,100,0.00,,,0.00,,2013-05-02 09:42:00,
2013-05-02 02:52:00,40.0,40.0,-100.00,South,180,0.0,0.0,100,0.00,,,0.00,,2013-05-02 09:52:00,
2013-05-02 03:02:00,40.0,40.0,-100.00,South,180,0.0,0.0,100,0.00,,,0.00,,2013-05-02 10:02:00,
2013-05-02 03:12:00,40.0,40.0,-100.00,South,180,0.0,0.0,100,0.00,,,0.00,,2013-05-02 10:12:00,
2013-05-02 03:22:00,39.0,39.0,-100.00,South,180,0.0,0.0,100,0.00,,,0.00,,2013-05-02 10:22:00,
2013-05-02 03:32:00,39.0,39.0,-100.00,South,180,0.0,0.0,100,0.00,,,0.00,,2013-05-02 10:32:00,
2013-05-02 03:42:00,39.0,39.0,-100.00,South,180,0.0,0.0,100,0.00,,,0.00,,2013-05-02 10:42:00,
2013-05-02 03:52:00,38.0,38.0,-100.00,South,180,0.0,0.0,100,0.00,,,0.00,,2013-05-02 10:52:00,
2013-05-02 04:02:00,38.0,38.0,-100.00,South,180,0.0,0.0,100,0.00,,,0.00,,2013-05-02 11:02:00,
2013-05-02 04:11:00,38.0,38.0,-100.00,South,180,0.0,0.0,100,0.00,,,0.00,,2013-05-02 11:11:00,
2013-05-02 04:21:00,37.0,37.0,-100.00,South,180,0.0,0.0,100,0.00,,,0.00,,2013-05-02 11:21:00,
2013-05-02 04:31:00,37.0,37.0,-100.00,South,180,0.0,0.0,100,0.00,,,0.00,,2013-05-02 11:31:00,
2013-05-02 04:41:00,37.0,37.0,-100.00,South,180,0.0,0.0,100,0.00,,,0.00,,2013-05-02 11:41:00,
2013-05-02 04:52:00,36.0,36.0,-100.00,South,180,0.0,0.0,100,0.00,,,0.00,,2013-05-02 11:52:00,
2013-05-02 05:01:00,37.0,37.0,-100.00,South,180,0.0,0.0,100,0.00,,,0.00,,2013-05-02 12:01:00,
2013-05-02 05:11:00,37.0,37.0,-100.00,South,180,0.0,0.0,100,0.00,,,0.00,,2013-05-02 12:11:00,
2013-05-02 05:21:00,36.0,36.0,-100.00,South,180,0.0,0.0,100,0.00,,,0.00,,2013-05-02 12:21:00,
2013-05-02 05:32:00,36.0,36.0,-100.00,South,180,0.0,0.0,100,0.00,,,0.00,,2013-05-02 12:32:00,
2013-05-02 05:41:00,36.0,36.0,-100.00,South,180,0.0,0.0,100,0.00,,,0.00,,2013-05-02 12:41:00,
2013-05-02 05:52:00,35.0,35.0,-100.00,South,180,0.0,0.0,100,0.00,,,0.00,,2013-05-02 12:52:00,
2013-05-02 06:01:00,34.0,34.0,-100.00,South,180,0.0,0.0,100,0.00,,,0.00,,2013-05-02 13:01:00,
2013-05-02 06:11:00,34.0,34.0,-100.00,South,180,0.0,0.0,100,0.00,,,0.00,,2013-05-02 13:11:00,
2013-05-02 06:21:00,35.0,35.0,-100.00,South,180,0.0,0.0,100,0.00,,,0.00,,2013-05-02 13:21:00,
2013-05-02 06:31:00,35.0,35.0,-100.00,South,180,0.0,0.0,100,0.00,,,0.00,,2013-05-02 13:31:00,
2013-05-02 06:41:00,35.0,35.0,-100.00,South,180,0.0,0.0,100,0.00,,,0.00,,2013-05-02 13:41:00,
2013-05-02 06:52:00,35.0,35.0,-100.00,South,180,0.0,0.0,100,0.00,,,0.00,,2013-05-02 13:52:00,
2013-05-02 07:02:00,35.0,35.0,-100.00,South,180,0.0,0.0,100,0.00,,,0.00,,2013-05-02 14:02:00,
2013-05-02 07:11:00,35.0,35.0,-100.00,South,180,0.0,0.0,100,0.00,,,0.00,,2013-05-02 14:11:00,
2013-05-02 07:21:00,37.0,37.0,-100.00,South,180,0.0,0.0,100,0.00,,,0.00,,2013-05-02 14:21:00,
2013-05-02 07:31:00,40.0,40.0,-100.00,South,180,0.0,0.0,100,0.00,,,0.00,,2013-05-02 14:31:00,
2013-05-02 07:42:00,40.0,40.0,-100.00,South,180,0.0,0.0,100,0.00,,,0.00,,2013-05-02 14:42:00,
2013-05-02 07:52:00,44.0,44.0,-100.00,South,180,0.0,0.0,100,0.00,,,0.00,,2013-05-02 14:52:00,
2013-05-02 08:02:00,45.0,45.0,-100.00,South,180,0.0,0.0,100,0.00,,,0.00,,2013-05-02 15:02:00,
2013-05-02 08:21:00,48.0,48.0,-100.00,South,180,0.0,0.0,100,0.00,,,0.00,,2013-05-02 15:21:00,
2013-05-02 08:32:00,50.0,50.0,-100.00,South,180,0.0,0.0,100,0.00,,,0.00,,2013-05-02 15:32:00,
2013-05-02 09:32:00,57.0,57.0,-100.00,South,180,0.0,0.0,100,0.00,,,0.00,,2013-05-02 16:32:00,
2013-05-02 09:43:00,61.0,61.0,-100.00,South,180,0.0,0.0,100,0.00,,,0.00,,2013-05-02 16:43:00,
2013-05-02 10:02:00,62.0,62.0,-100.00,South,180,0.0,0.0,100,0.00,,,0.00,,2013-05-02 17:02:00,
2013-05-02 10:12:00,61.0,61.0,-100.00,South,180,0.0,0.0,100,0.00,,,0.00,,2013-05-02 17:12:00,
2013-05-02 10:22:00,61.0,61.0,-100.00,South,180,0.0,0.0,100,0.00,,,0.00,,2013-05-02 17:22:00,
2013-05-02 10:31:00,66.0,66.0,-100.00,South,180,0.0,0.0,100,0.00,,,0.00,,2013-05-02 17:31:00,
2013-05-02 10:52:00,65.0,65.0,-100.00,South,180,0.0,0.0,100,0.00,,,0.00,,2013-05-02 17:52:00,
2013-05-02 11:01:00,66.0,66.0,-100.00,South,180,0.0,0.0,100,0.00,,,0.00,,2013-05-02 18:01:00,
2013-05-02 11:21:00,66.0,66.0,-100.00,South,180,0.0,0.0,100,0.00,,,0.00,,2013-05-02 18:21:00,
2013-05-02 11:31:00,69.0,69.0,-100.00,South,180,0.0,0.0,100,0.00,,,0.00,,2013-05-02 18:31:00,
2013-05-02 11:52:00,70.0,70.0,-100.00,South,180,0.0,0.0,100,0.00,,,0.00,,2013-05-02 18:52:00,
2013-05-02 12:01:00,68.0,68.0,-100.00,South,180,0.0,0.0,100,0.00,,,0.00,,2013-05-02 19:01:00,
2013-05-02 12:21:00,71.0,71.0,-100.00,South,180,0.0,0.0,100,0.00,,,0.00,,2013-05-02 19:21:00,
2013-05-02 12:31:00,71.0,71.0,-100.00,South,180,0.0,0.0,100,0.00,,,0.00,,2013-05-02 19:31:00,
2013-05-02 13:01:00,71.0,71.0,-100.00,South,180,0.0,0.0,100,0.00,,,0.00,,2013-05-02 20:01:00,
2013-05-02 13:11:00,69.0,69.0,-100.00,South,180,0.0,0.0,100,0.00,,,0.00,,2013-05-02 20:11:00,
2013-05-02 13:32:00,69.0,69.0,-100.00,South,180,0.0,0.0,100,0.00,,,0.00,,2013-05-02 20:32:00,
2013-05-02 13:52:00,71.0,71.0,-100.00,South,180,0.0,0.0,100,0.00,,,0.00,,2013-05-02 20:52:00,
2013-05-02 14:01:00,71.0,71.0,-100.00,South,180,0.0,0.0,100,0.00,,,0.00,,2013-05-02 21:01:00,
2013-05-02 14:11:00,72.0,72.0,-100.00,South,180,0.0,0.0,100,0.00,,,0.00,,2013-05-02 21:11:00,
2013-05-02 14:21:00,72.0,72.0,-100.00,South,180,0.0,0.0,100,0.00,,,0.00,,2013-05-02 21:21:00,
2013-05-02 14:33:00,71.0,71.0,-100.00,South,180,0.0,0.0,100,0.00,,,0.00,,2013-05-02 21:33:00,
2013-05-02 14:53:00,71.0,71.0,-100.00,South,180,0.0,0.0,100,0.00,,,0.00,,2013-05-02 21:53:00,
2013-05-02 15:02:00,70.0,70.0,-100.00,South,180,0.0,0.0,100,0.00,,,0.00,,2013-05-02 22:02:00,
2013-05-02 15:22:00,70.0,70.0,-100.00,South,180,0.0,0.0,100,0.00,,,0.00,,2013-05-02 22:22:00,
2013-05-02 15:32:00,71.0,71.0,-100.00,South,180,0.0,0.0,100,0.00,,,0.00,,2013-05-02 22:32:00,
2013-05-02 15:52:00,70.0,70.0,-100.00,South,180,0.0,0.0,100,0.00,,,0.00,,2013-05-02 22:52:00,
2013-05-02 16:02:00,69.0,69.0,-100.00,South,180,0.0,0.0,100,0.00,,,0.00,,2013-05-02 23:02:00,
2013-05-02 16:22:00,69.0,69.0,-100.00,South,180,0.0,0.0,100,0.00,,,0.00,,2013-05-02 23:22:00,
2013-05-02 16:31:00,69.0,69.0,-100.00,South,180,0.0,0.0,100,0.00,,,0.00,,2013-05-02 23:31:00,
2013-05-02 16:51:00,69.0,69.0,-100.00,South,180,0.0,0.0,100,0.00,,,0.00,,2013-05-02 23:51:00,
2013-05-02 17:01:00,68.0,68.0,-100.00,South,180,0.0,0.0,100,0.00,,,0.00,,2013-05-03 00:01:00,
2013-05-02 17:11:00,68.0,68.0,-100.00,South,180,0.0,0.0,100,0.00,,,0.00,,2013-05-03 00:11:00,
2013-05-02 17:21:00,68.0,68.0,-100.00,South,180,0.0,0.0,100,0.00,,,0.00,,2013-05-03 00:21:00,
2013-05-02 18:01:00,65.0,65.0,-100.00,South,180,0.0,0.0,100,0.00,,,0.00,,2013-05-03 01:01:00,
2013-05-02 18:21:00,64.0,64.0,-100.00,South,180,0.0,0.0,100,0.00,,,0.00,,2013-05-03 01:21:00,
2013-05-02 18:31:00,64.0,64.0,-100.00,South,180,0.0,0.0,100,0.00,,,0.00,,2013-05-03 01:31:00,
2013-05-02 18:52:00,63.0,63.0,-100.00,South,180,0.0,0.0,100,0.00,,,0.00,,2013-05-03 01:52:00,
2013-05-02 19:01:00,62.0,62.0,-100.00,South,180,0.0,0.0,100,0.00,,,0.00,,2013-05-03 02:01:00,
2013-05-02 19:21:00,61.0,61.0,-100.00,South,180,0.0,0.0,100,0.00,,,0.00,,2013-05-03 02:21:00,
2013-05-02 19:31:00,61.0,61.0,-100.00,South,180,0.0,0.0,100,0.00,,,0.00,,2013-05-03 02:31:00,
2013-05-02 19:52:00,60.0,60.0,-100.00,South,180,0.0,0.0,100,0.00,,,0.00,,2013-05-03 02:52:00,
2013-05-02 20:01:00,59.0,59.0,-100.00,South,180,0.0,0.0,100,0.00,,,0.00,,2013-05-03 03:01:00,
2013-05-02 20:11:00,58.0,58.0,-100.00,South,180,0.0,0.0,100,0.00,,,0.00,,2013-05-03 03:11:00,
2013-05-02 20:32:00,58.0,58.0,-100.00,South,180,0.0,0.0,100,0.00,,,0.00,,2013-05-03 03:32:00,
2013-05-02 20:53:00,57.0,57.0,-100.00,South,180,0.0,0.0,100,0.00,,,0.00,,2013-05-03 03:53:00,
2013-05-02 21:02:00,56.0,56.0,-100.00,South,180,0.0,0.0,100,0.00,,,0.00,,2013-05-03 04:02:00,
2013-05-02 21:12:00,56.0,56.0,-100.00,South,180,0.0,0.0,100,0.00,,,0.00,,2013-05-03 04:12:00,
2013-05-02 21:22:00,56.0,56.0,-100.00,South,180,0.0,0.0,100,0.00,,,0.00,,2013-05-03 04:22:00,
2013-05-02 21:32:00,55.0,55.0,-100.00,South,180,0.0,0.0,100,0.00,,,0.00,,2013-05-03 04:32:00,
2013-05-02 21:53:00,53.0,53.0,-100.00,South,180,0.0,0.0,100,0.00,,,0.00,,2013-05-03 04:53:00,
2013-05-02 22:02:00,52.0,52.0,-100.00,South,180,0.0,0.0,100,0.00,,,0.00,,2013-05-03 05:02:00,
2013-05-02 22:21:00,52.0,52.0,-100.00,South,180,0.0,0.0,100,0.00,,,0.00,,2013-05-03 05:21:00,
2013-05-02 22:32:00,51.0,51.0,-100.00,South,180,0.0,0.0,100,0.00,,,0.00,,2013-05-03 05:32:00,
2013-05-02 22:52:00,51.0,51.0,-100.00,South,180,0.0,0.0,100,0.00,,,0.00,,2013-05-03 05:52:00,
2013-05-02 23:01:00,50.0,50.0,-100.00,South,180,0.0,0.0,100,0.00,,,0.00,,2013-05-03 06:01:00,
2013-05-02 23:21:00,47.0,47.0,-100.00,South,180,0.0,0.0,100,0.00,,,0.00,,2013-05-03 06:21:00,
2013-05-02 23:31:00,48.0,48.0,-100.00,South,180,0.0,0.0,100,0.00,,,0.00,,2013-05-03 06:31:00,
2013-05-02 23:52:00,46.0,46.0,-100.00,South,180,0.0,0.0,100,0.00,,,0.00,,2013-05-03 06:52:00,